KCFD/CFD METAR and TAF weather

Enter ICAO airport designator
Station Type Date Time Source
KCFD METAR 2022/12/04 12:15 UTC NOAA

KCFD 041215Z AUTO 33005KT 10SM OVC015 13/06 A3032 RMK AO2 T01250056


Station Type Date Time Source
KCFD Decoded METAR 2022/12/04 12:15 UTC NOAA

Station name not available
Dec 04, 2022 - 07:15 AM EST / 2022.12.04 1215 UTC
Wind: from the NNW (330 degrees) at 6 MPH (5 KT):0
Visibility: 10 mile(s):0
Sky conditions: overcast
Temperature: 54.5 F (12.5 C)
Dew Point: 42.1 F (5.6 C)
Relative Humidity: 62%
Pressure (altimeter): 30.32 in. Hg (1026 hPa)
ob: KCFD 041215Z AUTO 33005KT 10SM OVC015 13/06 A3032 RMK AO2 T01250056
cycle: 12

Station Type Date Time Source
KCFD TAF UTC NOAA

Error!

Example: see airport list